createdAt,value
2023-02-22T00:01:50.797Z,6.83
2023-02-22T00:04:21.058Z,4.57
2023-02-22T00:06:49.524Z,6.57
2023-02-22T00:09:20.442Z,5.93
2023-02-22T00:11:48.459Z,6.37
2023-02-22T00:14:15.431Z,7.40
2023-02-22T00:16:42.222Z,7.33
2023-02-22T00:19:10.443Z,7.07
2023-02-22T00:21:37.339Z,9.80
2023-02-22T00:24:22.979Z,9.13
2023-02-22T00:26:51.692Z,5.03
2023-02-22T00:29:18.647Z,5.83
2023-02-22T00:31:45.484Z,6.20
2023-02-22T00:34:13.983Z,4.47
2023-02-22T00:36:49.036Z,5.00
2023-02-22T00:39:16.151Z,3.30
2023-02-22T00:41:43.299Z,3.17
2023-02-22T00:44:10.181Z,2.37
2023-02-22T00:46:37.201Z,2.97
2023-02-22T00:49:05.161Z,7.80
2023-02-22T00:51:31.874Z,3.37
2023-02-22T00:53:58.606Z,2.90
2023-02-22T00:56:25.523Z,3.30
2023-02-22T00:58:52.192Z,1.70
2023-02-22T01:01:19.153Z,2.10
2023-02-22T01:03:46.027Z,3.37
2023-02-22T01:06:12.679Z,2.33
2023-02-22T01:08:43.670Z,2.97
2023-02-22T01:11:10.412Z,2.73
2023-02-22T01:13:37.114Z,2.63
2023-02-22T01:16:04.228Z,4.47
2023-02-22T01:18:30.928Z,2.27
2023-02-22T01:20:57.586Z,3.10
2023-02-22T01:23:24.211Z,3.80
2023-02-22T01:25:50.936Z,3.00
2023-02-22T01:28:17.658Z,4.90
2023-02-22T01:30:44.720Z,4.17
2023-02-22T01:33:12.761Z,2.80
2023-02-22T01:35:42.980Z,3.67
2023-02-22T01:38:10.542Z,3.30
2023-02-22T01:40:42.259Z,2.83
2023-02-22T01:43:32.350Z,11.20
2023-02-22T01:46:00.730Z,2.93
2023-02-22T01:48:41.772Z,2.40
2023-02-22T01:51:24.023Z,1.90
2023-02-22T01:54:02.923Z,3.17
2023-02-22T01:56:32.471Z,2.70
2023-02-22T01:59:11.492Z,2.77
2023-02-22T02:01:43.051Z,2.93
2023-02-22T02:04:19.189Z,3.40
2023-02-22T02:06:48.067Z,5.50
2023-02-22T02:09:21.165Z,3.40
2023-02-22T02:11:49.569Z,2.43
2023-02-22T02:14:17.836Z,3.20
2023-02-22T02:16:48.593Z,3.37
2023-02-22T02:19:21.942Z,4.00
2023-02-22T02:22:50.028Z,2.23
2023-02-22T02:25:30.882Z,2.40
2023-02-22T02:28:35.320Z,2.70
2023-02-22T02:31:39.612Z,5.63
2023-02-22T02:34:33.205Z,3.50
2023-02-22T02:37:08.952Z,2.50
2023-02-22T02:40:06.508Z,2.50
2023-02-22T02:42:43.233Z,3.60
2023-02-22T02:45:17.577Z,3.63
2023-02-22T02:47:53.351Z,3.43
2023-02-22T02:50:25.766Z,3.77
2023-02-22T02:52:56.788Z,4.70
2023-02-22T02:55:23.950Z,6.77
2023-02-22T02:57:50.588Z,4.47
2023-02-22T03:00:22.968Z,4.27
2023-02-22T03:03:17.786Z,3.40
2023-02-22T03:06:29.051Z,5.83
2023-02-22T03:09:10.726Z,3.03
2023-02-22T03:12:02.099Z,2.87
2023-02-22T03:14:48.480Z,3.13
2023-02-22T03:17:30.128Z,3.47
2023-02-22T03:20:38.596Z,3.77
2023-02-22T03:23:25.942Z,2.50
2023-02-22T03:26:03.226Z,4.23
2023-02-22T03:28:33.695Z,2.40
2023-02-22T03:31:05.996Z,6.43
2023-02-22T03:33:41.542Z,4.57
2023-02-22T03:36:30.323Z,3.23
2023-02-22T03:39:04.150Z,3.97
2023-02-22T03:41:34.836Z,3.57
2023-02-22T03:44:06.929Z,4.10
2023-02-22T03:46:36.241Z,3.00
2023-02-22T03:49:14.183Z,3.20
2023-02-22T03:51:42.660Z,3.67
2023-02-22T03:54:16.198Z,2.17
2023-02-22T03:56:58.124Z,4.50
2023-02-22T03:59:27.405Z,7.10
2023-02-22T04:01:55.664Z,3.70
2023-02-22T04:04:24.276Z,3.70
2023-02-22T04:06:52.520Z,3.03
2023-02-22T04:09:19.742Z,2.03
2023-02-22T04:11:46.880Z,3.13
2023-02-22T04:14:13.819Z,3.10
2023-02-22T04:16:40.490Z,3.90
2023-02-22T04:19:09.359Z,4.93
2023-02-22T04:21:37.936Z,7.83
2023-02-22T04:24:06.144Z,4.97
2023-02-22T04:26:32.823Z,4.43
2023-02-22T04:29:01.668Z,2.47
2023-02-22T04:31:35.249Z,2.57
2023-02-22T04:34:03.343Z,3.43
2023-02-22T04:36:33.344Z,3.97
2023-02-22T04:39:01.600Z,3.53
2023-02-22T04:41:31.416Z,4.60
2023-02-22T04:43:58.121Z,2.40
2023-02-22T04:46:26.326Z,4.33
2023-02-22T04:48:54.203Z,2.47
2023-02-22T04:51:24.414Z,5.17
2023-02-22T04:54:00.444Z,5.27
2023-02-22T04:56:27.265Z,4.53
2023-02-22T04:58:54.020Z,31.30
2023-02-22T05:01:20.996Z,8.83
2023-02-22T05:03:47.712Z,8.00
2023-02-22T05:06:14.384Z,4.77
2023-02-22T05:08:41.025Z,5.50
2023-02-22T05:11:08.083Z,4.33
2023-02-22T05:13:34.726Z,5.27
2023-02-22T05:16:02.384Z,7.73
2023-02-22T05:18:29.694Z,5.70
2023-02-22T05:20:56.423Z,5.27
2023-02-22T05:23:23.090Z,4.23
2023-02-22T05:25:49.831Z,4.90
2023-02-22T05:28:16.707Z,4.37
2023-02-22T05:30:43.423Z,4.07
2023-02-22T05:33:10.356Z,4.40
2023-02-22T05:35:37.948Z,3.80
2023-02-22T05:38:05.572Z,3.17
2023-02-22T05:40:32.831Z,3.80
2023-02-22T05:43:02.024Z,5.10
2023-02-22T05:45:29.185Z,4.07
2023-02-22T05:47:56.495Z,6.20
2023-02-22T05:50:24.470Z,4.87
2023-02-22T05:52:52.063Z,4.43
2023-02-22T05:55:20.563Z,3.43
2023-02-22T05:57:47.665Z,3.47
2023-02-22T06:00:29.732Z,7.17
2023-02-22T06:02:57.789Z,8.40
2023-02-22T06:05:24.822Z,7.27
2023-02-22T06:07:52.181Z,5.40
2023-02-22T06:10:18.886Z,15.97
2023-02-22T06:12:45.974Z,6.17
2023-02-22T06:15:13.968Z,6.43
2023-02-22T06:17:41.792Z,4.53
2023-02-22T06:20:10.970Z,5.80
2023-02-22T06:22:37.680Z,7.57
2023-02-22T06:25:05.715Z,3.33
2023-02-22T06:27:32.909Z,2.97
2023-02-22T06:30:00.764Z,2.87
2023-02-22T06:32:27.954Z,4.73
2023-02-22T06:34:54.660Z,3.27
2023-02-22T06:37:21.769Z,5.00
2023-02-22T06:39:48.483Z,4.55
2023-02-22T06:42:15.261Z,5.00
2023-02-22T06:44:41.971Z,5.43
2023-02-22T06:47:08.615Z,4.77
2023-02-22T06:49:35.294Z,7.10
2023-02-22T06:52:05.114Z,3.40
2023-02-22T06:54:32.083Z,4.27
2023-02-22T06:56:58.922Z,4.53
2023-02-22T06:59:25.705Z,4.40
2023-02-22T07:01:53.405Z,12.07
2023-02-22T07:04:20.841Z,22.40
2023-02-22T07:06:48.941Z,22.63
2023-02-22T07:09:17.380Z,12.47
2023-02-22T07:11:44.337Z,9.27
2023-02-22T07:14:11.045Z,9.90
2023-02-22T07:16:37.767Z,6.23
2023-02-22T07:19:04.566Z,5.57
2023-02-22T07:21:31.275Z,13.50
2023-02-22T07:23:59.077Z,8.73
2023-02-22T07:26:27.195Z,7.53
2023-02-22T07:28:54.058Z,5.17
2023-02-22T07:31:20.848Z,9.50
2023-02-22T07:33:47.673Z,8.70
2023-02-22T07:36:17.721Z,8.70
2023-02-22T07:38:47.396Z,5.87
2023-02-22T07:41:14.111Z,8.67
2023-02-22T07:43:40.771Z,8.30
2023-02-22T07:46:07.648Z,10.50
2023-02-22T07:48:34.388Z,7.57
2023-02-22T07:51:01.053Z,5.50
2023-02-22T07:53:30.526Z,7.07
2023-02-22T07:56:02.193Z,6.83
2023-02-22T07:58:30.380Z,6.67
2023-02-22T08:00:58.953Z,7.93
2023-02-22T08:03:26.749Z,8.17
2023-02-22T08:06:00.397Z,6.17
2023-02-22T08:08:27.126Z,5.40
2023-02-22T08:10:53.784Z,8.07
2023-02-22T08:13:22.204Z,6.40
2023-02-22T08:15:53.486Z,8.60
2023-02-22T08:18:21.864Z,7.43
2023-02-22T08:20:50.155Z,10.73
2023-02-22T08:23:19.424Z,9.47
2023-02-22T08:25:47.197Z,9.50
2023-02-22T08:28:16.667Z,16.43
2023-02-22T08:30:43.930Z,10.23
2023-02-22T08:33:16.714Z,9.57
2023-02-22T08:35:43.648Z,7.27
2023-02-22T08:38:17.689Z,8.97
2023-02-22T08:40:44.696Z,7.30
2023-02-22T08:43:13.344Z,7.73
2023-02-22T08:45:40.840Z,6.07
2023-02-22T08:48:07.585Z,6.67
2023-02-22T08:50:35.468Z,8.90
2023-02-22T08:53:05.498Z,6.67
2023-02-22T08:55:34.446Z,5.40
2023-02-22T08:58:03.019Z,8.07
2023-02-22T09:00:33.140Z,7.27
2023-02-22T09:03:01.911Z,6.27
2023-02-22T09:05:31.200Z,6.57
2023-02-22T09:07:58.211Z,9.50
2023-02-22T09:10:27.854Z,5.80
2023-02-22T09:13:00.536Z,7.27
2023-02-22T09:15:28.517Z,7.53
2023-02-22T09:17:55.684Z,6.07
2023-02-22T09:20:24.520Z,7.30
2023-02-22T09:22:52.039Z,6.03
2023-02-22T09:25:22.364Z,6.20
2023-02-22T09:27:51.135Z,5.13
2023-02-22T09:30:28.098Z,5.27
2023-02-22T09:32:57.715Z,9.43
2023-02-22T09:35:27.027Z,7.43
2023-02-22T09:37:59.987Z,6.30
2023-02-22T09:40:30.268Z,6.37
2023-02-22T09:43:09.082Z,5.60
2023-02-22T09:46:04.454Z,6.03
2023-02-22T09:48:34.862Z,6.70
2023-02-22T09:51:07.573Z,6.97
2023-02-22T09:53:44.239Z,6.93
2023-02-22T09:56:13.716Z,6.23
2023-02-22T09:58:46.157Z,7.17
2023-02-22T10:01:39.199Z,8.93
2023-02-22T10:04:24.871Z,5.83
2023-02-22T10:07:06.068Z,6.27
2023-02-22T10:09:37.900Z,8.50
2023-02-22T10:12:20.754Z,8.00
2023-02-22T10:15:01.767Z,7.77
2023-02-22T10:18:21.271Z,7.03
2023-02-22T10:20:57.006Z,6.93
2023-02-22T10:23:34.884Z,7.10
2023-02-22T10:26:20.140Z,12.50
2023-02-22T10:28:55.148Z,19.90
2023-02-22T10:31:30.167Z,12.73
2023-02-22T10:34:07.461Z,10.40
2023-02-22T10:36:34.489Z,11.27
2023-02-22T10:39:15.098Z,12.27
2023-02-22T10:41:48.660Z,14.27
2023-02-22T10:44:15.336Z,11.80
2023-02-22T10:46:43.061Z,13.67
2023-02-22T10:49:12.607Z,11.57
2023-02-22T10:51:39.396Z,14.90
2023-02-22T10:54:15.040Z,22.07
2023-02-22T10:56:50.174Z,12.57
2023-02-22T10:59:40.668Z,11.53
2023-02-22T11:02:30.563Z,14.30
2023-02-22T11:05:00.262Z,13.20
2023-02-22T11:07:35.080Z,13.63
2023-02-22T11:10:09.181Z,15.17
2023-02-22T11:12:42.317Z,15.90
2023-02-22T11:15:18.815Z,16.17
2023-02-22T11:17:49.884Z,14.63
2023-02-22T11:20:28.534Z,15.80
2023-02-22T11:23:00.857Z,14.67
2023-02-22T11:25:39.287Z,14.90
2023-02-22T11:28:20.739Z,14.73
2023-02-22T11:30:52.100Z,18.33
2023-02-22T11:33:24.854Z,14.77
2023-02-22T11:35:59.303Z,13.60
2023-02-22T11:38:47.294Z,15.57
2023-02-22T11:41:29.135Z,16.07
2023-02-22T11:44:23.563Z,14.33
2023-02-22T11:46:50.878Z,15.30
2023-02-22T11:49:18.333Z,16.20
2023-02-22T11:52:09.740Z,16.07
2023-02-22T11:54:54.550Z,17.63
2023-02-22T11:58:04.470Z,16.23
2023-02-22T12:00:47.254Z,15.90
2023-02-22T12:03:51.916Z,16.10
2023-02-22T12:06:32.376Z,15.23
2023-02-22T12:09:14.089Z,16.10
2023-02-22T12:12:06.689Z,18.80
2023-02-22T12:14:58.194Z,18.50
2023-02-22T12:18:00.321Z,15.90
2023-02-22T12:20:30.874Z,17.23
2023-02-22T12:23:30.119Z,17.57
2023-02-22T12:26:07.397Z,15.57
2023-02-22T12:28:38.987Z,19.50
2023-02-22T12:31:11.238Z,17.53
2023-02-22T12:33:55.406Z,17.43
2023-02-22T12:36:32.352Z,14.67
2023-02-22T12:39:11.520Z,15.60
2023-02-22T12:41:45.478Z,16.23
2023-02-22T12:44:20.521Z,17.47
2023-02-22T12:46:53.508Z,16.30
2023-02-22T12:50:00.510Z,23.37
2023-02-22T12:52:41.673Z,15.33
2023-02-22T12:55:17.062Z,15.10
2023-02-22T12:57:57.067Z,15.53
2023-02-22T13:00:47.611Z,18.10
2023-02-22T13:03:35.933Z,21.13
2023-02-22T13:06:24.647Z,17.60
2023-02-22T13:09:13.242Z,13.17
2023-02-22T13:12:01.386Z,14.37
2023-02-22T13:14:50.669Z,14.07
2023-02-22T13:17:22.888Z,14.63
2023-02-22T13:19:58.617Z,15.33
2023-02-22T13:22:41.987Z,17.60
2023-02-22T13:25:57.852Z,14.60
2023-02-22T13:28:41.573Z,17.80
2023-02-22T13:31:21.061Z,19.63
2023-02-22T13:34:16.368Z,16.07
2023-02-22T13:36:54.989Z,16.00
2023-02-22T13:39:45.719Z,17.00
2023-02-22T13:42:27.214Z,13.20
2023-02-22T13:45:40.779Z,15.20
2023-02-22T13:48:24.558Z,13.10
2023-02-22T13:51:31.043Z,14.33
2023-02-22T13:54:14.015Z,13.50
2023-02-22T13:56:46.111Z,18.10
2023-02-22T13:59:34.369Z,13.07
2023-02-22T14:02:05.159Z,17.80
2023-02-22T14:04:34.453Z,13.37
2023-02-22T14:07:02.619Z,12.87
2023-02-22T14:09:50.371Z,12.13
2023-02-22T14:12:33.580Z,14.13
2023-02-22T14:15:28.282Z,19.87
2023-02-22T14:18:07.282Z,12.90
2023-02-22T14:20:38.536Z,15.83
2023-02-22T14:23:23.687Z,26.73
2023-02-22T14:25:51.339Z,18.73
2023-02-22T14:28:38.687Z,12.03
2023-02-22T14:31:08.300Z,14.87
2023-02-22T14:34:00.139Z,14.93
2023-02-22T14:36:34.060Z,13.80
2023-02-22T14:39:12.413Z,14.87
2023-02-22T14:41:42.628Z,16.47
2023-02-22T14:44:12.786Z,17.17
2023-02-22T14:46:42.267Z,13.37
2023-02-22T14:49:16.630Z,15.47
2023-02-22T14:51:50.583Z,15.47
2023-02-22T14:54:41.766Z,15.43
2023-02-22T14:57:32.270Z,16.30
2023-02-22T15:00:22.546Z,17.20
2023-02-22T15:02:52.516Z,14.10
2023-02-22T15:05:20.735Z,16.67
2023-02-22T15:08:02.703Z,14.43
2023-02-22T15:10:31.116Z,16.33
2023-02-22T15:13:10.503Z,21.20
2023-02-22T15:15:49.101Z,16.73
2023-02-22T15:18:38.533Z,15.07
2023-02-22T15:21:11.004Z,20.17
2023-02-22T15:23:49.012Z,16.53
2023-02-22T15:26:35.811Z,18.80
2023-02-22T15:29:09.776Z,17.43
2023-02-22T15:31:38.940Z,15.77
2023-02-22T15:34:14.794Z,15.70
2023-02-22T15:36:43.150Z,16.37
2023-02-22T15:39:20.096Z,17.03
2023-02-22T15:41:46.986Z,14.53
2023-02-22T15:44:23.125Z,18.17
2023-02-22T15:46:54.359Z,18.13
2023-02-22T15:49:23.404Z,19.10
2023-02-22T15:52:19.710Z,19.63
2023-02-22T15:54:49.955Z,18.43
2023-02-22T15:57:19.586Z,18.83
2023-02-22T15:59:53.122Z,21.13
2023-02-22T16:02:29.931Z,21.67
2023-02-22T16:05:06.996Z,16.80
2023-02-22T16:07:39.569Z,17.57
2023-02-22T16:10:08.988Z,17.97
2023-02-22T16:12:36.041Z,22.13
2023-02-22T16:15:03.228Z,16.30
2023-02-22T16:17:35.606Z,18.60
2023-02-22T16:20:22.316Z,19.07
2023-02-22T16:22:49.868Z,18.57
2023-02-22T16:25:19.590Z,22.00
2023-02-22T16:27:50.245Z,18.43
2023-02-22T16:30:39.586Z,17.27
2023-02-22T16:33:16.413Z,22.87
2023-02-22T16:35:52.058Z,21.50
2023-02-22T16:38:19.286Z,24.47
2023-02-22T16:40:52.175Z,17.30
2023-02-22T16:43:22.889Z,18.63
2023-02-22T16:45:49.685Z,18.20
2023-02-22T16:48:20.142Z,21.63
2023-02-22T16:50:49.641Z,22.87
2023-02-22T16:53:19.989Z,19.73
2023-02-22T16:55:53.638Z,20.00
2023-02-22T16:58:20.336Z,20.13
2023-02-22T17:00:47.024Z,20.73
2023-02-22T17:03:18.285Z,22.43
2023-02-22T17:05:45.062Z,23.80
2023-02-22T17:08:11.819Z,20.53
2023-02-22T17:10:38.784Z,22.00
2023-02-22T17:13:21.256Z,22.70
2023-02-22T17:15:50.028Z,19.37
2023-02-22T17:18:22.473Z,20.43
2023-02-22T17:20:53.059Z,21.50
2023-02-22T17:23:20.100Z,20.40
2023-02-22T17:26:04.659Z,21.60
2023-02-22T17:28:31.599Z,27.57
2023-02-22T17:31:02.781Z,20.70
2023-02-22T17:33:33.250Z,23.17
2023-02-22T17:36:02.023Z,25.30
2023-02-22T17:38:30.319Z,22.83
2023-02-22T17:40:59.196Z,22.23
2023-02-22T17:43:27.713Z,24.27
2023-02-22T17:45:55.115Z,23.53
2023-02-22T17:48:24.031Z,23.83
2023-02-22T17:50:51.408Z,21.93
2023-02-22T17:53:21.667Z,23.33
2023-02-22T17:55:48.813Z,21.90
2023-02-22T17:58:15.546Z,24.37
2023-02-22T18:00:46.015Z,22.93
2023-02-22T18:03:21.582Z,25.00
2023-02-22T18:05:50.164Z,26.20
2023-02-22T18:08:16.874Z,26.10
2023-02-22T18:10:44.781Z,26.57
2023-02-22T18:13:17.887Z,25.50
2023-02-22T18:15:45.866Z,44.77
2023-02-22T18:18:12.801Z,27.00
2023-02-22T18:20:44.177Z,23.93
2023-02-22T18:23:17.223Z,26.47
2023-02-22T18:26:00.237Z,22.50
2023-02-22T18:28:31.098Z,24.40
2023-02-22T18:31:00.904Z,24.30
2023-02-22T18:33:27.654Z,25.00
2023-02-22T18:35:55.149Z,24.27
2023-02-22T18:38:25.738Z,24.13
2023-02-22T18:41:06.239Z,25.23
2023-02-22T18:43:36.524Z,25.67
2023-02-22T18:46:11.790Z,23.80
2023-02-22T18:48:39.801Z,25.17
2023-02-22T18:51:10.152Z,25.77
2023-02-22T18:53:38.402Z,29.77
2023-02-22T18:56:29.954Z,27.47
2023-02-22T18:58:59.935Z,25.57
2023-02-22T19:01:27.958Z,23.87
2023-02-22T19:03:55.532Z,27.03
2023-02-22T19:06:22.594Z,27.87
2023-02-22T19:08:50.829Z,30.87
2023-02-22T19:11:20.198Z,26.97
2023-02-22T19:13:48.399Z,27.87
2023-02-22T19:16:19.744Z,25.97
2023-02-22T19:18:48.496Z,29.83
2023-02-22T19:21:16.124Z,26.40
2023-02-22T19:23:46.149Z,26.83
2023-02-22T19:26:18.569Z,26.43
2023-02-22T19:28:46.970Z,32.70
2023-02-22T19:31:23.215Z,30.87
2023-02-22T19:33:53.032Z,28.53
2023-02-22T19:36:24.932Z,26.07
2023-02-22T19:38:51.628Z,27.37
2023-02-22T19:41:23.988Z,22.90
2023-02-22T19:43:53.235Z,22.83
2023-02-22T19:46:24.770Z,21.73
2023-02-22T19:48:53.169Z,28.20
2023-02-22T19:51:25.140Z,22.10
2023-02-22T19:53:52.659Z,27.97
2023-02-22T19:56:26.793Z,24.63
2023-02-22T19:58:55.482Z,27.60
2023-02-22T20:01:25.130Z,26.27
2023-02-22T20:03:59.657Z,24.43
2023-02-22T20:06:29.504Z,24.93
2023-02-22T20:08:56.808Z,28.67
2023-02-22T20:11:24.644Z,27.00
2023-02-22T20:13:55.400Z,26.47
2023-02-22T20:16:22.850Z,27.57
2023-02-22T20:18:50.032Z,27.70
2023-02-22T20:21:30.698Z,30.57
2023-02-22T20:23:59.254Z,27.13
2023-02-22T20:26:28.383Z,26.33
2023-02-22T20:28:56.131Z,25.63
2023-02-22T20:31:23.290Z,31.80
2023-02-22T20:33:54.004Z,29.83
2023-02-22T20:36:23.914Z,29.50
2023-02-22T20:38:55.541Z,31.03
2023-02-22T20:41:32.080Z,29.77
2023-02-22T20:43:59.810Z,32.10
2023-02-22T20:46:28.715Z,31.43
2023-02-22T20:48:56.940Z,29.33
2023-02-22T20:51:24.107Z,30.00
2023-02-22T20:53:51.416Z,27.43
2023-02-22T20:56:23.182Z,30.43
2023-02-22T20:58:50.333Z,40.30
2023-02-22T21:01:22.645Z,28.13
2023-02-22T21:03:49.969Z,22.70
2023-02-22T21:06:18.676Z,24.30
2023-02-22T21:08:49.291Z,23.77
2023-02-22T21:11:17.883Z,24.87
2023-02-22T21:13:44.930Z,23.67
2023-02-22T21:16:18.993Z,24.13
2023-02-22T21:18:45.863Z,22.67
2023-02-22T21:21:13.126Z,27.63
2023-02-22T21:23:40.870Z,24.93
2023-02-22T21:26:16.550Z,22.97
2023-02-22T21:28:51.286Z,18.70
2023-02-22T21:31:20.640Z,20.13
2023-02-22T21:33:50.412Z,20.33
2023-02-22T21:36:17.532Z,20.17
2023-02-22T21:38:53.104Z,19.53
2023-02-22T21:41:24.278Z,20.43
2023-02-22T21:43:51.816Z,23.47
2023-02-22T21:46:19.214Z,20.70
2023-02-22T21:48:48.762Z,17.40
2023-02-22T21:51:17.349Z,20.53
2023-02-22T21:53:49.600Z,20.67
2023-02-22T21:56:19.147Z,20.03
2023-02-22T21:58:47.261Z,18.90
2023-02-22T22:01:17.419Z,17.83
2023-02-22T22:03:45.810Z,18.77
2023-02-22T22:06:14.109Z,17.97
2023-02-22T22:08:42.794Z,19.47
2023-02-22T22:11:11.075Z,18.47
2023-02-22T22:13:39.792Z,18.47
2023-02-22T22:16:09.387Z,19.23
2023-02-22T22:18:36.988Z,18.23
2023-02-22T22:21:13.952Z,22.80
2023-02-22T22:23:41.480Z,22.77
2023-02-22T22:26:12.980Z,27.07
2023-02-22T22:28:41.411Z,31.23
2023-02-22T22:31:10.178Z,27.10
2023-02-22T22:33:37.482Z,28.50
2023-02-22T22:36:05.348Z,25.77
2023-02-22T22:38:33.283Z,20.77
2023-02-22T22:41:01.182Z,23.73
2023-02-22T22:43:29.058Z,24.93
2023-02-22T22:45:58.019Z,24.70
2023-02-22T22:48:25.638Z,31.03
2023-02-22T22:51:02.523Z,22.20
2023-02-22T22:53:31.598Z,24.37
2023-02-22T22:56:06.119Z,22.57
2023-02-22T22:58:33.761Z,26.33
2023-02-22T23:01:06.219Z,25.13
2023-02-22T23:03:36.758Z,22.70
2023-02-22T23:06:04.854Z,23.07
2023-02-22T23:08:42.891Z,25.47
2023-02-22T23:11:10.845Z,24.73
2023-02-22T23:13:38.823Z,26.87
2023-02-22T23:16:12.575Z,23.13
2023-02-22T23:18:43.091Z,22.23
2023-02-22T23:21:10.615Z,25.20
2023-02-22T23:23:37.979Z,27.13
2023-02-22T23:26:11.587Z,27.80
2023-02-22T23:28:40.114Z,27.40
2023-02-22T23:31:09.587Z,27.23
2023-02-22T23:33:38.213Z,28.40
2023-02-22T23:36:06.308Z,22.20
2023-02-22T23:38:34.737Z,25.20
2023-02-22T23:41:06.365Z,23.10
2023-02-22T23:43:33.042Z,24.13
2023-02-22T23:46:06.310Z,22.33
2023-02-22T23:48:32.969Z,23.30
2023-02-22T23:50:59.771Z,21.47
2023-02-22T23:53:26.600Z,21.93
2023-02-22T23:55:53.254Z,26.30
2023-02-22T23:58:23.065Z,25.60
